createdAt,value
2022-09-14T00:00:03.781Z,42.80
2022-09-14T00:05:08.937Z,42.80
2022-09-14T00:10:12.085Z,43.40
2022-09-14T00:15:15.274Z,43.20
2022-09-14T00:20:19.772Z,43.40
2022-09-14T00:25:22.910Z,43.80
2022-09-14T00:30:26.330Z,43.40
2022-09-14T00:35:30.800Z,43.40
2022-09-14T00:40:33.897Z,43.90
2022-09-14T00:45:36.998Z,43.40
2022-09-14T00:50:41.684Z,43.50
2022-09-14T00:55:44.800Z,44.00
2022-09-14T01:00:48.015Z,43.90
2022-09-14T01:06:04.285Z,43.90
2022-09-14T01:11:29.383Z,44.80
2022-09-14T01:16:38.773Z,44.70
2022-09-14T01:21:45.405Z,44.80
2022-09-14T01:27:16.565Z,44.60
2022-09-14T01:32:23.320Z,44.70
2022-09-14T01:37:30.625Z,44.40
2022-09-14T01:42:36.388Z,44.60
2022-09-14T01:47:43.301Z,44.70
2022-09-14T01:52:49.857Z,44.70
2022-09-14T01:57:58.777Z,45.20
2022-09-14T02:03:08.460Z,44.70
2022-09-14T02:08:11.623Z,45.10
2022-09-14T02:13:16.089Z,44.10
2022-09-14T02:18:19.558Z,44.40
2022-09-14T02:23:23.434Z,44.10
2022-09-14T02:28:27.913Z,44.50
2022-09-14T02:33:38.627Z,44.90
2022-09-14T02:38:46.825Z,45.40
2022-09-14T02:43:56.979Z,45.30
2022-09-14T02:49:07.697Z,45.50
2022-09-14T02:54:15.884Z,46.30
2022-09-14T02:59:20.475Z,45.80
2022-09-14T03:04:24.112Z,45.40
2022-09-14T03:09:27.305Z,44.90
2022-09-14T03:14:31.866Z,44.90
2022-09-14T03:19:34.971Z,45.40
2022-09-14T03:24:38.053Z,45.20
2022-09-14T03:29:42.600Z,45.40
2022-09-14T03:34:45.840Z,46.20
2022-09-14T03:39:48.945Z,45.90
2022-09-14T03:44:53.473Z,46.20
2022-09-14T03:49:57.065Z,47.10
2022-09-14T03:55:00.153Z,47.20
2022-09-14T04:00:07.737Z,46.50
2022-09-14T04:05:10.961Z,47.80
2022-09-14T04:10:14.130Z,46.90
2022-09-14T04:15:18.745Z,47.10
2022-09-14T04:20:21.971Z,47.60
2022-09-14T04:25:25.084Z,47.10
2022-09-14T04:30:29.728Z,47.20
2022-09-14T04:35:33.007Z,47.80
2022-09-14T04:40:36.083Z,47.40
2022-09-14T04:45:40.937Z,47.40
2022-09-14T04:50:44.632Z,48.20
2022-09-14T04:55:47.846Z,47.60
2022-09-14T05:00:52.349Z,47.80
2022-09-14T05:05:55.485Z,49.00
2022-09-14T05:10:58.904Z,48.00
2022-09-14T05:16:11.600Z,48.00
2022-09-14T05:21:16.732Z,49.30
2022-09-14T05:26:19.795Z,48.60
2022-09-14T05:31:25.623Z,48.10
2022-09-14T05:36:28.736Z,49.30
2022-09-14T05:41:31.824Z,48.30
2022-09-14T05:46:36.336Z,48.60
2022-09-14T05:51:39.517Z,49.20
2022-09-14T05:56:42.673Z,49.00
2022-09-14T06:01:47.180Z,49.10
2022-09-14T06:07:07.992Z,49.60
2022-09-14T06:12:14.614Z,49.20
2022-09-14T06:17:19.083Z,49.20
2022-09-14T06:22:22.188Z,49.80
2022-09-14T06:27:25.517Z,49.30
2022-09-14T06:32:31.904Z,49.30
2022-09-14T06:37:34.977Z,50.70
2022-09-14T06:42:38.043Z,49.40
2022-09-14T06:47:42.581Z,49.50
2022-09-14T06:52:45.692Z,50.50
2022-09-14T06:57:49.436Z,49.90
2022-09-14T07:02:55.888Z,50.50
2022-09-14T07:07:59.311Z,51.20
2022-09-14T07:13:02.575Z,50.40
2022-09-14T07:18:07.132Z,50.80
2022-09-14T07:23:12.636Z,51.70
2022-09-14T07:28:16.161Z,51.00
2022-09-14T07:33:20.584Z,51.50
2022-09-14T07:38:41.777Z,52.70
2022-09-14T07:43:50.017Z,52.30
2022-09-14T07:48:57.978Z,53.70
2022-09-14T07:54:01.696Z,54.60
2022-09-14T08:04:30.058Z,54.40
2022-09-14T08:09:33.333Z,55.10
2022-09-14T08:14:36.980Z,54.00
2022-09-14T08:19:41.905Z,54.10
2022-09-14T08:24:45.021Z,55.20
2022-09-14T08:29:48.181Z,53.70
2022-09-14T08:34:52.645Z,53.30
2022-09-14T08:39:55.770Z,54.10
2022-09-14T08:45:05.097Z,53.30
2022-09-14T08:50:17.685Z,53.70
2022-09-14T08:55:34.526Z,53.90
2022-09-14T09:00:43.688Z,54.50
2022-09-14T09:05:54.273Z,54.30
2022-09-14T09:11:00.611Z,54.40
2022-09-14T09:16:07.460Z,53.50
2022-09-14T09:21:16.693Z,52.60
2022-09-14T09:26:28.230Z,52.80
2022-09-14T09:31:35.920Z,52.90
2022-09-14T09:36:42.956Z,52.40
2022-09-14T09:41:49.588Z,52.20
2022-09-14T09:46:55.525Z,52.00
2022-09-14T09:52:08.563Z,51.20
2022-09-14T09:57:23.079Z,51.70
2022-09-14T10:02:29.411Z,50.20
2022-09-14T10:07:36.096Z,49.90
2022-09-14T10:12:46.040Z,49.50
2022-09-14T10:18:08.008Z,48.90
2022-09-14T10:23:36.246Z,47.70
2022-09-14T10:28:41.052Z,48.20
2022-09-14T10:33:44.323Z,47.40
2022-09-14T10:38:53.184Z,47.60
2022-09-14T10:44:31.860Z,45.50
2022-09-14T10:49:48.116Z,45.50
2022-09-14T10:55:23.647Z,45.20
2022-09-14T11:00:29.061Z,45.40
2022-09-14T11:05:36.668Z,45.80
2022-09-14T11:10:52.710Z,45.90
2022-09-14T11:16:02.998Z,44.50
2022-09-14T11:21:16.394Z,44.20
2022-09-14T11:26:25.937Z,43.90
2022-09-14T11:31:34.128Z,42.70
2022-09-14T11:36:43.095Z,42.80
2022-09-14T11:41:53.213Z,43.60
2022-09-14T11:47:03.077Z,42.90
2022-09-14T11:52:14.894Z,42.50
2022-09-14T11:57:20.937Z,41.90
2022-09-14T12:02:49.231Z,42.40
2022-09-14T12:08:03.895Z,42.30
2022-09-14T12:13:21.605Z,40.40
2022-09-14T12:18:28.344Z,39.40
2022-09-14T12:23:42.861Z,41.10
2022-09-14T12:28:50.545Z,40.20
2022-09-14T12:34:19.355Z,40.00
2022-09-14T12:39:24.401Z,40.30
2022-09-14T12:44:34.765Z,40.20
2022-09-14T12:49:38.204Z,39.80
2022-09-14T12:54:52.405Z,40.80
2022-09-14T13:00:05.089Z,39.70
2022-09-14T13:05:14.525Z,39.40
2022-09-14T13:10:21.080Z,40.40
2022-09-14T13:15:28.930Z,40.10
2022-09-14T13:20:33.947Z,40.30
2022-09-14T13:25:39.624Z,40.60
2022-09-14T13:30:44.915Z,40.40
2022-09-14T13:35:51.852Z,40.20
2022-09-14T13:40:57.648Z,39.90
2022-09-14T13:46:03.066Z,40.20
2022-09-14T13:51:07.214Z,39.90
2022-09-14T13:56:21.778Z,40.50
2022-09-14T14:01:28.379Z,40.20
2022-09-14T14:06:34.864Z,39.70
2022-09-14T14:11:41.146Z,40.00
2022-09-14T14:17:11.726Z,40.60
2022-09-14T14:22:20.271Z,40.10
2022-09-14T14:27:31.552Z,40.20
2022-09-14T14:32:36.002Z,39.60
2022-09-14T14:37:39.072Z,39.60
2022-09-14T14:42:42.776Z,39.90
2022-09-14T14:47:47.626Z,39.80
2022-09-14T14:52:51.596Z,40.00
2022-09-14T14:57:55.305Z,39.80
2022-09-14T15:03:00.193Z,39.80
2022-09-14T15:08:03.617Z,40.10
2022-09-14T15:13:07.365Z,39.70
2022-09-14T15:18:15.732Z,40.20
2022-09-14T15:23:18.804Z,41.30
2022-09-14T15:28:22.956Z,41.20
2022-09-14T15:33:27.404Z,42.30
2022-09-14T15:38:30.605Z,43.10
2022-09-14T15:43:33.903Z,43.00
2022-09-14T15:48:41.132Z,43.50
2022-09-14T15:53:45.685Z,44.20
2022-09-14T15:58:48.771Z,44.00
2022-09-14T16:03:57.645Z,44.30
2022-09-14T16:09:02.305Z,45.30
2022-09-14T16:14:06.317Z,44.90
2022-09-14T16:19:12.599Z,45.10
2022-09-14T16:24:18.059Z,46.10
2022-09-14T16:29:24.242Z,46.10
2022-09-14T16:34:30.804Z,46.50
2022-09-14T16:39:35.062Z,47.20
2022-09-14T16:44:38.240Z,46.60
2022-09-14T16:49:42.695Z,46.90
2022-09-14T16:54:45.776Z,47.40
2022-09-14T16:59:48.901Z,46.80
2022-09-14T17:04:53.872Z,47.00
2022-09-14T17:09:56.989Z,47.50
2022-09-14T17:15:00.116Z,46.80
2022-09-14T17:20:05.388Z,46.90
2022-09-14T17:25:11.165Z,47.70
2022-09-14T17:30:16.099Z,47.30
2022-09-14T17:35:20.562Z,47.00
2022-09-14T17:40:23.855Z,47.70
2022-09-14T17:45:27.047Z,47.20
2022-09-14T17:50:31.720Z,47.30
2022-09-14T17:55:35.120Z,47.80
2022-09-14T18:00:38.258Z,47.20
2022-09-14T18:05:42.725Z,47.20
2022-09-14T18:10:46.189Z,47.80
2022-09-14T18:15:49.378Z,47.40
2022-09-14T18:20:53.949Z,47.50
2022-09-14T18:25:57.312Z,47.70
2022-09-14T18:31:05.327Z,47.20
2022-09-14T18:36:10.245Z,47.90
2022-09-14T18:41:14.793Z,47.40
2022-09-14T18:46:18.978Z,47.10
2022-09-14T18:51:23.809Z,46.90
2022-09-14T18:56:28.033Z,46.90
2022-09-14T19:01:31.394Z,46.80
2022-09-14T19:06:37.370Z,46.80
2022-09-14T19:11:40.524Z,47.30
2022-09-14T19:16:43.853Z,47.00
2022-09-14T19:21:48.304Z,47.20
2022-09-14T19:26:52.832Z,47.70
2022-09-14T19:31:56.209Z,47.40
2022-09-14T19:37:00.748Z,47.30
2022-09-14T19:42:03.852Z,47.70
2022-09-14T19:47:07.011Z,47.30
2022-09-14T19:52:11.496Z,47.50
2022-09-14T19:57:14.661Z,47.80
2022-09-14T20:02:17.905Z,47.50
2022-09-14T20:07:22.831Z,47.30
2022-09-14T20:12:25.875Z,47.40
2022-09-14T20:17:29.019Z,46.80
2022-09-14T20:22:33.552Z,46.80
2022-09-14T20:27:36.643Z,47.30
2022-09-14T20:32:39.769Z,46.90
2022-09-14T20:37:44.612Z,46.90
2022-09-14T20:42:47.805Z,47.00
2022-09-14T20:47:50.970Z,46.70
2022-09-14T20:52:55.513Z,46.70
2022-09-14T20:57:58.704Z,46.90
2022-09-14T21:03:01.916Z,46.90
2022-09-14T21:08:07.302Z,46.70
2022-09-14T21:13:10.367Z,46.50
2022-09-14T21:18:16.573Z,46.20
2022-09-14T21:23:23.148Z,46.20
2022-09-14T21:28:26.222Z,46.60
2022-09-14T21:33:29.305Z,46.60
2022-09-14T21:38:33.793Z,46.80
2022-09-14T21:43:37.953Z,47.50
2022-09-14T21:48:41.329Z,47.60
2022-09-14T21:53:47.660Z,47.90
2022-09-14T21:58:51.805Z,48.80
2022-09-14T22:03:56.237Z,48.20
2022-09-14T22:09:01.601Z,48.30
2022-09-14T22:14:07.323Z,48.70
2022-09-14T22:19:15.695Z,48.50
2022-09-14T22:24:22.873Z,48.90
2022-09-14T22:29:26.219Z,49.00
2022-09-14T22:34:30.137Z,48.40
2022-09-14T22:39:34.965Z,48.90
2022-09-14T22:44:38.185Z,49.50
2022-09-14T22:49:41.290Z,49.00
2022-09-14T22:54:45.716Z,49.00
2022-09-14T22:59:48.786Z,49.60
2022-09-14T23:04:51.853Z,49.20
2022-09-14T23:09:56.352Z,48.90
2022-09-14T23:14:59.413Z,49.40
2022-09-14T23:20:04.304Z,48.80
2022-09-14T23:25:10.131Z,49.10
2022-09-14T23:30:14.491Z,49.50
2022-09-14T23:35:17.896Z,49.50
2022-09-14T23:40:22.497Z,49.40
2022-09-14T23:45:25.786Z,49.40
2022-09-14T23:50:29.303Z,49.40
2022-09-14T23:55:34.032Z,49.30
